createdAt,value
2023-04-25T00:00:09.669Z,1.07
2023-04-25T00:00:59.164Z,1.43
2023-04-25T00:01:11.224Z,1.43
2023-04-25T00:01:41.616Z,.35
2023-04-25T00:02:12.676Z,2.15
2023-04-25T00:03:15.685Z,3.23
2023-04-25T00:03:46.470Z,2.15
2023-04-25T00:04:17.104Z,1.07
2023-04-25T00:04:51.020Z,1.43
2023-04-25T00:05:21.243Z,1.43
2023-04-25T00:05:51.340Z,.72
2023-04-25T00:06:21.796Z,0
2023-04-25T00:06:52.558Z,1.07
2023-04-25T00:07:23.235Z,.35
2023-04-25T00:07:55.213Z,.35
2023-04-25T00:13:55.183Z,.35
2023-04-25T00:14:13.615Z,0
2023-04-25T00:14:39.458Z,0
2023-04-25T00:15:12.993Z,0
2023-04-25T00:15:42.028Z,0
2023-04-25T00:16:12.274Z,1.07
2023-04-25T00:16:45.137Z,1.43
2023-04-25T00:17:12.567Z,.35
2023-04-25T00:17:43.207Z,.35
2023-04-25T00:18:18.531Z,.35
2023-04-25T00:18:45.156Z,.35
2023-04-25T00:19:16.552Z,.35
2023-04-25T00:19:48.367Z,1.43
2023-04-25T00:20:20.450Z,.72
2023-04-25T00:20:51.918Z,1.07
2023-04-25T00:21:22.052Z,.35
2023-04-25T00:21:57.958Z,1.43
2023-04-25T00:22:21.859Z,0
2023-04-25T00:22:52.847Z,2.88
2023-04-25T00:23:24.868Z,.35
2023-04-25T00:23:55.180Z,.35
2023-04-25T00:24:26.844Z,1.07
2023-04-25T00:24:59.803Z,2.88
2023-04-25T00:25:29.598Z,.35
2023-04-25T00:26:01.084Z,3.23
2023-04-25T00:26:31.441Z,2.88
2023-04-25T00:27:04.278Z,1.80
2023-04-25T00:27:34.649Z,.72
2023-04-25T00:28:03.960Z,2.52
2023-04-25T00:28:35.477Z,.72
2023-04-25T00:29:05.044Z,1.07
2023-04-25T00:29:36.504Z,0
2023-04-25T00:30:09.854Z,.72
2023-04-25T00:31:00.253Z,.72
2023-04-25T00:31:11.014Z,.35
2023-04-25T00:31:42.303Z,.35
2023-04-25T00:32:15.554Z,1.07
2023-04-25T00:32:43.321Z,2.88
2023-04-25T00:33:13.286Z,1.07
2023-04-25T00:33:44.158Z,.35
2023-04-25T00:34:15.055Z,1.07
2023-04-25T00:34:46.284Z,1.80
2023-04-25T00:35:18.462Z,1.80
2023-04-25T00:35:49.683Z,1.80
2023-04-25T00:36:21.615Z,.35
2023-04-25T00:36:51.215Z,1.07
2023-04-25T00:37:22.078Z,.35
2023-04-25T00:37:52.570Z,1.07
2023-04-25T00:38:23.228Z,0
2023-04-25T00:38:53.887Z,0
2023-04-25T00:39:24.815Z,1.43
2023-04-25T00:39:55.613Z,0
2023-04-25T00:40:27.457Z,2.88
2023-04-25T00:40:59.677Z,1.43
2023-04-25T00:41:30.563Z,.72
2023-04-25T00:42:01.585Z,0
2023-04-25T00:42:31.866Z,1.43
2023-04-25T00:43:02.464Z,.35
2023-04-25T00:43:32.708Z,1.07
2023-04-25T00:44:03.805Z,0
2023-04-25T00:44:35.204Z,0
2023-04-25T00:45:07.887Z,.35
2023-04-25T00:45:37.270Z,0
2023-04-25T00:46:09.557Z,.72
2023-04-25T00:46:41.672Z,.35
2023-04-25T00:47:11.365Z,.35
2023-04-25T00:47:41.766Z,0
2023-04-25T00:48:11.959Z,.35
2023-04-25T00:48:42.744Z,0
2023-04-25T00:49:13.864Z,.72
2023-04-25T00:49:44.788Z,0
2023-04-25T00:50:16.548Z,1.07
2023-04-25T00:50:48.243Z,0
2023-04-25T00:51:17.910Z,0
2023-04-25T00:51:51.268Z,1.43
2023-04-25T00:52:21.312Z,1.43
2023-04-25T00:52:51.613Z,1.07
2023-04-25T00:53:22.927Z,1.07
2023-04-25T00:53:53.371Z,1.07
2023-04-25T00:54:23.983Z,.35
2023-04-25T00:54:54.930Z,.35
2023-04-25T00:55:26.266Z,0
2023-04-25T00:55:57.221Z,.72
2023-04-25T00:56:28.346Z,0
2023-04-25T00:57:01.479Z,0
2023-04-25T00:57:31.007Z,.72
2023-04-25T00:58:01.912Z,.72
2023-04-25T00:58:32.013Z,.35
2023-04-25T00:59:03.652Z,0
2023-04-25T00:59:33.785Z,0
2023-04-25T01:00:05.536Z,.35
2023-04-25T01:00:35.727Z,0
2023-04-25T01:01:12.063Z,0
2023-04-25T01:01:38.212Z,.35
2023-04-25T01:02:13.226Z,1.07
2023-04-25T01:02:41.825Z,.35
2023-04-25T01:03:11.938Z,.35
2023-04-25T01:03:42.680Z,1.43
2023-04-25T01:04:13.403Z,1.07
2023-04-25T01:04:43.674Z,1.07
2023-04-25T01:05:15.649Z,0
2023-04-25T01:05:46.227Z,0
2023-04-25T01:06:17.473Z,1.43
2023-04-25T01:06:48.127Z,0
2023-04-25T01:07:20.995Z,.72
2023-04-25T01:07:53.293Z,.35
2023-04-25T01:08:21.660Z,.72
2023-04-25T01:08:52.158Z,0
2023-04-25T01:09:23.241Z,0
2023-04-25T01:09:53.901Z,0
2023-04-25T01:10:52.134Z,0
2023-04-25T01:10:55.705Z,0
2023-04-25T01:11:27.970Z,0
2023-04-25T01:11:58.468Z,0
2023-04-25T01:12:30.900Z,0
2023-04-25T01:13:03.635Z,0
2023-04-25T01:13:32.275Z,0
2023-04-25T01:14:03.155Z,0
2023-04-25T01:14:33.417Z,0
2023-04-25T01:15:04.690Z,.35
2023-04-25T01:15:34.996Z,0
2023-04-25T01:16:05.998Z,0
2023-04-25T01:16:37.648Z,0
2023-04-25T01:17:08.311Z,0
2023-04-25T01:17:39.852Z,.35
2023-04-25T01:18:11.811Z,0
2023-04-25T01:18:42.135Z,0
2023-04-25T01:19:12.562Z,0
2023-04-25T01:19:43.441Z,0
2023-04-25T01:20:14.164Z,0
2023-04-25T01:20:45.218Z,0
2023-04-25T01:21:24.097Z,0
2023-04-25T01:21:47.618Z,0
2023-04-25T01:22:19.399Z,0
2023-04-25T01:22:51.628Z,0
2023-04-25T01:23:22.284Z,0
2023-04-25T01:23:52.495Z,0
2023-04-25T01:24:22.341Z,0
2023-04-25T01:24:54.083Z,0
2023-04-25T01:25:24.442Z,0
2023-04-25T01:25:57.056Z,0
2023-04-25T01:26:25.949Z,0
2023-04-25T01:26:57.084Z,0
2023-04-25T01:27:28.142Z,0
2023-04-25T01:28:16.389Z,0
2023-04-25T01:28:31.298Z,0
2023-04-25T01:29:01.998Z,0
2023-04-25T01:29:32.229Z,0
2023-04-25T01:30:04.288Z,0
2023-04-25T01:30:34.807Z,0
2023-04-25T01:31:05.722Z,0
2023-04-25T01:31:36.312Z,0
2023-04-25T01:32:07.893Z,0
2023-04-25T01:32:39.017Z,0
2023-04-25T01:33:10.730Z,0
2023-04-25T01:33:41.710Z,0
2023-04-25T01:34:11.704Z,0
2023-04-25T01:34:43.284Z,0
2023-04-25T01:35:12.917Z,0
2023-04-25T01:35:43.935Z,0
2023-04-25T01:36:15.387Z,0
2023-04-25T01:36:46.663Z,0
2023-04-25T01:37:34.317Z,0
2023-04-25T01:37:47.956Z,0
2023-04-25T01:38:20.334Z,0
2023-04-25T01:38:51.838Z,0
2023-04-25T01:39:22.503Z,0
2023-04-25T01:39:52.720Z,0
2023-04-25T01:40:23.353Z,0
2023-04-25T01:41:03.396Z,0
2023-04-25T01:41:25.372Z,0
2023-04-25T01:41:57.509Z,0
2023-04-25T01:42:28.067Z,0
2023-04-25T01:42:58.387Z,0
2023-04-25T01:43:30.848Z,0
2023-04-25T01:44:32.317Z,0
2023-04-25T01:45:05.573Z,0
2023-04-25T01:45:33.185Z,0
2023-04-25T01:46:23.330Z,0
2023-04-25T01:46:34.990Z,0
2023-04-25T01:47:06.348Z,0
2023-04-25T01:47:37.723Z,0
2023-04-25T01:48:08.318Z,0
2023-04-25T01:48:39.635Z,0
2023-04-25T01:49:11.708Z,0
2023-04-25T01:49:42.029Z,0
2023-04-25T01:50:13.328Z,0
2023-04-25T01:50:43.448Z,0
2023-04-25T01:51:14.207Z,0
2023-04-25T01:51:45.223Z,0
2023-04-25T01:52:16.650Z,0
2023-04-25T01:52:48.242Z,0
2023-04-25T01:53:18.644Z,0
2023-04-25T01:53:51.493Z,0
2023-04-25T01:54:22.503Z,0
2023-04-25T01:55:09.454Z,0
2023-04-25T01:55:24.210Z,0
2023-04-25T01:55:53.041Z,0
2023-04-25T01:56:24.532Z,0
2023-04-25T01:56:54.839Z,0
2023-04-25T01:57:26.433Z,0
2023-04-25T01:57:57.654Z,0
2023-04-25T01:58:28.046Z,0
2023-04-25T01:58:59.929Z,0
2023-04-25T02:00:03.721Z,0
2023-04-25T02:00:32.626Z,7.56
2023-04-25T02:01:03.727Z,0
2023-04-25T02:01:34.323Z,.35
2023-04-25T02:02:06.332Z,0
2023-04-25T02:02:36.437Z,0
2023-04-25T02:03:07.528Z,0
2023-04-25T02:03:38.287Z,0
2023-04-25T02:04:31.073Z,0
2023-04-25T02:04:42.033Z,0
2023-04-25T02:05:13.408Z,0
2023-04-25T02:05:42.797Z,0
2023-04-25T02:06:29.988Z,0
2023-04-25T02:06:44.521Z,0
2023-04-25T02:07:15.161Z,0
2023-04-25T02:07:46.126Z,0
2023-04-25T02:08:17.543Z,0
2023-04-25T02:08:48.362Z,0
2023-04-25T02:09:21.045Z,0
2023-04-25T02:09:52.956Z,0
2023-04-25T02:21:08.190Z,0
2023-04-25T02:22:40.451Z,0
2023-04-25T02:22:54.963Z,0
2023-04-25T02:23:19.265Z,1.43
2023-04-25T02:23:50.754Z,0
2023-04-25T02:24:19.735Z,0
2023-04-25T02:24:49.420Z,0
2023-04-25T02:25:21.273Z,0
2023-04-25T02:25:51.814Z,0
2023-04-25T02:26:22.780Z,0
2023-04-25T02:26:53.301Z,0
2023-04-25T02:27:55.297Z,0
2023-04-25T02:28:28.321Z,0
2023-04-25T02:28:58.665Z,0
2023-04-25T02:29:29.113Z,0
2023-04-25T02:29:59.841Z,0
2023-04-25T02:30:32.601Z,0
2023-04-25T02:31:01.774Z,0
2023-04-25T02:31:32.419Z,0
2023-04-25T02:32:03.903Z,0
2023-04-25T02:32:35.243Z,0
2023-04-25T02:33:06.083Z,0
2023-04-25T02:33:39.681Z,0
2023-04-25T02:34:08.497Z,0
2023-04-25T02:34:40.591Z,0
2023-04-25T02:35:12.166Z,0
2023-04-25T02:35:40.645Z,0
2023-04-25T02:36:11.702Z,0
2023-04-25T02:36:43.527Z,0
2023-04-25T02:38:22.192Z,0
2023-04-25T02:38:48.634Z,0
2023-04-25T02:39:19.214Z,0
2023-04-25T02:39:49.449Z,0
2023-04-25T02:40:20.903Z,0
2023-04-25T02:40:50.656Z,0
2023-04-25T02:41:21.986Z,0
2023-04-25T02:41:52.333Z,0
2023-04-25T02:42:23.466Z,0
2023-04-25T02:42:54.353Z,0
2023-04-25T02:43:25.519Z,0
2023-04-25T02:43:56.926Z,0
2023-04-25T02:44:29.674Z,0
2023-04-25T02:44:59.064Z,0
2023-04-25T02:45:30.601Z,0
2023-04-25T02:46:01.102Z,0
2023-04-25T02:46:39.143Z,0
2023-04-25T02:47:02.695Z,0
2023-04-25T02:47:33.460Z,0
2023-04-25T02:48:04.784Z,0
2023-04-25T02:49:06.743Z,0
2023-04-25T02:49:54.743Z,0
2023-04-25T02:50:11.101Z,0
2023-04-25T02:50:40.090Z,0
2023-04-25T02:51:11.074Z,0
2023-04-25T02:51:41.282Z,0
2023-04-25T02:52:12.866Z,0
2023-04-25T02:52:43.270Z,0
2023-04-25T02:53:14.756Z,0
2023-04-25T02:53:45.593Z,0
2023-04-25T02:54:17.214Z,0
2023-04-25T02:54:49.295Z,0
2023-04-25T02:55:20.174Z,0
2023-04-25T02:55:49.958Z,0
2023-04-25T02:56:20.582Z,0
2023-04-25T02:57:22.628Z,.35
2023-04-25T02:57:53.471Z,0
2023-04-25T02:58:24.341Z,0
2023-04-25T02:58:56.310Z,.35
2023-04-25T02:59:26.701Z,0
2023-04-25T02:59:59.092Z,.35
2023-04-25T03:00:29.736Z,0
2023-04-25T03:01:03.891Z,0
2023-04-25T03:01:31.517Z,0
2023-04-25T03:02:01.870Z,0
2023-04-25T03:03:04.032Z,0
2023-04-25T03:03:34.851Z,0
2023-04-25T03:04:05.332Z,0
2023-04-25T03:04:36.704Z,0
2023-04-25T03:05:11.113Z,0
2023-04-25T03:05:40.140Z,0
2023-04-25T03:06:10.406Z,0
2023-04-25T03:06:40.690Z,.35
2023-04-25T03:07:11.675Z,0
2023-04-25T03:07:42.610Z,0
2023-04-25T03:08:13.386Z,0
2023-04-25T03:08:44.643Z,0
2023-04-25T03:09:15.526Z,0
2023-04-25T03:09:48.160Z,0
2023-04-25T03:10:19.691Z,0
2023-04-25T03:10:49.872Z,.72
2023-04-25T03:11:20.539Z,0
2023-04-25T03:11:50.918Z,0
2023-04-25T03:12:22.028Z,0
2023-04-25T03:12:52.597Z,.35
2023-04-25T03:13:24.552Z,0
2023-04-25T03:13:54.653Z,0
2023-04-25T03:14:56.577Z,0
2023-04-25T03:15:29.623Z,0
2023-04-25T03:15:59.996Z,0
2023-04-25T03:16:30.291Z,.35
2023-04-25T03:17:00.851Z,0
2023-04-25T03:17:31.713Z,.35
2023-04-25T03:18:02.628Z,0
2023-04-25T03:18:33.456Z,.35
2023-04-25T03:19:35.898Z,.35
2023-04-25T03:20:07.264Z,0
2023-04-25T03:21:10.733Z,0
2023-04-25T03:21:57.988Z,0
2023-04-25T03:22:11.362Z,0
2023-04-25T03:22:41.535Z,0
2023-04-25T03:23:12.544Z,0
2023-04-25T03:23:43.579Z,0
2023-04-25T03:24:14.657Z,0
2023-04-25T03:25:03.724Z,0
2023-04-25T03:25:16.788Z,0
2023-04-25T03:25:48.876Z,0
2023-04-25T03:26:20.036Z,0
2023-04-25T03:26:50.524Z,0
2023-04-25T03:27:20.914Z,0
2023-04-25T03:27:51.997Z,0
2023-04-25T03:28:22.579Z,0
2023-04-25T03:28:53.289Z,0
2023-04-25T03:29:24.698Z,0
2023-04-25T03:29:55.727Z,0
2023-04-25T03:30:31.045Z,0
2023-04-25T03:31:00.891Z,0
2023-04-25T03:31:30.483Z,0
2023-04-25T03:32:01.288Z,0
2023-04-25T03:32:31.395Z,0
2023-04-25T03:33:01.733Z,0
2023-04-25T03:33:51.118Z,0
2023-04-25T03:34:04.095Z,0
2023-04-25T03:34:34.484Z,0
2023-04-25T03:35:06.091Z,.35
2023-04-25T03:35:37.167Z,0
2023-04-25T03:36:29.167Z,2.52
2023-04-25T03:36:41.901Z,0
2023-04-25T03:37:11.379Z,3.95
2023-04-25T03:37:41.569Z,0
2023-04-25T03:38:12.057Z,0
2023-04-25T03:38:42.776Z,0
2023-04-25T03:39:13.944Z,0
2023-04-25T03:39:44.650Z,0
2023-04-25T03:40:15.782Z,0
2023-04-25T03:40:46.830Z,0
2023-04-25T03:41:34.954Z,0
2023-04-25T03:41:51.525Z,0
2023-04-25T03:42:21.445Z,0
2023-04-25T03:42:52.143Z,0
2023-04-25T03:43:22.365Z,0
2023-04-25T03:43:52.977Z,0
2023-04-25T03:44:23.541Z,0
2023-04-25T03:44:54.693Z,0
2023-04-25T03:45:26.082Z,0
2023-04-25T03:45:56.606Z,0
2023-04-25T03:46:27.840Z,0
2023-04-25T03:47:01.108Z,0
2023-04-25T03:47:31.890Z,0
2023-04-25T03:48:02.283Z,0
2023-04-25T03:48:51.963Z,0
2023-04-25T03:49:03.297Z,0
2023-04-25T03:49:33.895Z,0
2023-04-25T03:50:04.770Z,0
2023-04-25T03:50:35.949Z,.72
2023-04-25T03:51:39.385Z,0
2023-04-25T03:52:41.670Z,0
2023-04-25T03:53:12.567Z,2.15
2023-04-25T03:53:42.185Z,0
2023-04-25T03:54:12.815Z,0
2023-04-25T03:54:43.523Z,0
2023-04-25T03:55:14.331Z,0
2023-04-25T03:55:45.767Z,0
2023-04-25T03:56:16.949Z,0
2023-04-25T03:56:47.873Z,0
2023-04-25T03:57:35.983Z,0
2023-04-25T03:57:52.684Z,0
2023-04-25T03:58:22.577Z,.35
2023-04-25T03:58:52.683Z,0
2023-04-25T03:59:23.761Z,0
2023-04-25T03:59:55.432Z,5.76
2023-04-25T04:03:28.819Z,0
2023-04-25T04:04:17.511Z,0
2023-04-25T04:05:17.267Z,0
2023-04-25T04:05:35.503Z,0
2023-04-25T04:06:06.170Z,0
2023-04-25T04:06:38.220Z,0
2023-04-25T04:07:20.464Z,0
2023-04-25T04:07:39.963Z,0
2023-04-25T04:08:11.727Z,0
2023-04-25T04:08:41.986Z,0
2023-04-25T04:09:12.774Z,0
2023-04-25T04:09:43.008Z,0
2023-04-25T04:10:14.467Z,6.11
2023-04-25T04:11:16.408Z,0
2023-04-25T04:11:49.711Z,0
2023-04-25T04:12:17.614Z,0
2023-04-25T04:12:49.075Z,0
2023-04-25T04:13:22.244Z,0
2023-04-25T04:13:51.787Z,0
2023-04-25T04:14:22.111Z,0
2023-04-25T04:14:52.831Z,0
2023-04-25T04:15:24.586Z,0
2023-04-25T04:15:54.765Z,0
2023-04-25T04:16:25.789Z,.35
2023-04-25T04:16:56.453Z,.35
2023-04-25T04:17:29.597Z,0
2023-04-25T04:18:00.301Z,.35
2023-04-25T04:18:30.451Z,0
2023-04-25T04:19:01.053Z,0
2023-04-25T04:19:31.765Z,.72
2023-04-25T04:20:03.722Z,0
2023-04-25T04:20:33.923Z,0
2023-04-25T04:21:05.205Z,0
2023-04-25T04:21:35.940Z,0
2023-04-25T04:22:08.279Z,0
2023-04-25T04:22:40.224Z,.35
2023-04-25T04:23:10.998Z,0
2023-04-25T04:23:40.763Z,0
2023-04-25T04:24:12.231Z,0
2023-04-25T04:24:42.681Z,1.07
2023-04-25T04:25:13.758Z,0
2023-04-25T04:25:43.971Z,0
2023-04-25T04:26:14.980Z,0
2023-04-25T04:26:46.104Z,0
2023-04-25T04:27:18.938Z,0
2023-04-25T04:27:49.664Z,0
2023-04-25T04:28:20.272Z,0
2023-04-25T04:28:50.739Z,0
2023-04-25T04:29:21.351Z,0
2023-04-25T04:29:52.141Z,0
2023-04-25T04:30:25.852Z,0
2023-04-25T04:30:54.680Z,0
2023-04-25T04:31:25.105Z,0
2023-04-25T04:31:56.157Z,0
2023-04-25T04:32:27.426Z,0
2023-04-25T04:33:00.830Z,12.24
2023-04-25T04:33:30.965Z,11.87
2023-04-25T04:34:01.044Z,11.15
2023-04-25T04:34:32.174Z,10.79
2023-04-25T04:35:02.775Z,0
2023-04-25T04:35:34.430Z,1.07
2023-04-25T04:36:04.725Z,.35
2023-04-25T04:36:35.042Z,0
2023-04-25T04:37:06.101Z,0
2023-04-25T04:37:36.639Z,0
2023-04-25T04:38:09.631Z,0
2023-04-25T04:38:41.911Z,0
2023-04-25T04:39:10.568Z,0
2023-04-25T04:39:41.669Z,0
2023-04-25T04:40:12.589Z,0
2023-04-25T04:40:43.270Z,0
2023-04-25T04:41:14.603Z,0
2023-04-25T04:42:16.082Z,0
2023-04-25T04:42:49.097Z,0
2023-04-25T04:43:20.194Z,0
2023-04-25T04:43:50.545Z,0
2023-04-25T04:44:20.702Z,0
2023-04-25T04:44:52.230Z,0
2023-04-25T04:45:23.779Z,0
2023-04-25T04:45:53.279Z,0
2023-04-25T04:46:23.876Z,0
2023-04-25T04:46:55.007Z,.35
2023-04-25T04:47:25.945Z,0
2023-04-25T04:47:59.051Z,3.95
2023-04-25T04:48:28.801Z,0
2023-04-25T04:49:01.096Z,0
2023-04-25T04:49:31.458Z,0
2023-04-25T04:50:01.632Z,0
2023-04-25T04:50:34.101Z,.35
2023-04-25T04:51:03.434Z,0
2023-04-25T04:51:34.129Z,0
2023-04-25T04:52:05.494Z,0
2023-04-25T04:52:36.252Z,.35
2023-04-25T04:53:07.236Z,.35
2023-04-25T04:53:39.983Z,.35
2023-04-25T04:54:11.579Z,0
2023-04-25T04:54:41.643Z,0
2023-04-25T04:55:12.716Z,1.07
2023-04-25T04:55:42.395Z,2.88
2023-04-25T04:56:13.069Z,.72
2023-04-25T04:56:45.033Z,3.60
2023-04-25T04:57:14.986Z,2.15
2023-04-25T04:57:46.312Z,1.07
2023-04-25T04:58:19.176Z,2.52
2023-04-25T04:58:49.907Z,.72
2023-04-25T04:59:21.369Z,2.88
2023-04-25T04:59:50.507Z,1.07
2023-04-25T05:00:25.798Z,1.43
2023-04-25T05:00:52.544Z,2.88
2023-04-25T05:01:23.289Z,2.88
2023-04-25T05:01:54.036Z,2.52
2023-04-25T05:02:24.784Z,1.80
2023-04-25T05:02:56.095Z,4.31
2023-04-25T05:03:28.189Z,3.95
2023-04-25T05:04:00.709Z,3.60
2023-04-25T05:04:30.077Z,2.88
2023-04-25T05:05:00.554Z,7.19
2023-04-25T05:05:31.472Z,3.60
2023-04-25T05:06:02.216Z,3.60
2023-04-25T05:06:33.069Z,2.88
2023-04-25T05:07:05.886Z,2.88
2023-04-25T05:07:34.666Z,3.95
2023-04-25T05:08:06.125Z,3.23
2023-04-25T05:08:37.157Z,4.68
2023-04-25T05:09:09.684Z,2.52
2023-04-25T05:09:40.536Z,2.15
2023-04-25T05:10:11.672Z,3.23
2023-04-25T05:10:41.573Z,6.48
2023-04-25T05:11:14.902Z,1.07
2023-04-25T05:11:43.011Z,4.68
2023-04-25T05:12:32.375Z,2.88
2023-04-25T05:12:44.926Z,4.68
2023-04-25T05:13:16.539Z,4.68
2023-04-25T05:13:49.760Z,2.88
2023-04-25T05:14:43.123Z,1.07
2023-04-25T05:14:51.323Z,3.95
2023-04-25T05:15:31.761Z,5.76
2023-04-25T05:17:21.755Z,6.11
2023-04-25T05:17:25.082Z,4.31
2023-04-25T05:18:12.063Z,3.60
2023-04-25T05:18:25.943Z,3.60
2023-04-25T05:18:58.409Z,1.07
2023-04-25T05:19:30.005Z,1.07
2023-04-25T05:20:00.692Z,1.07
2023-04-25T05:20:31.753Z,.72
2023-04-25T05:21:02.359Z,4.68
2023-04-25T05:21:32.623Z,1.07
2023-04-25T05:22:03.396Z,3.95
2023-04-25T05:22:34.038Z,3.23
2023-04-25T05:23:05.589Z,4.31
2023-04-25T05:23:36.267Z,1.43
2023-04-25T05:24:07.230Z,3.95
2023-04-25T05:24:39.657Z,1.07
2023-04-25T05:25:11.469Z,3.60
2023-04-25T05:25:41.796Z,2.88
2023-04-25T05:26:11.797Z,1.07
2023-04-25T05:26:42.887Z,.72
2023-04-25T05:27:12.947Z,4.31
2023-04-25T05:27:46.497Z,1.43
2023-04-25T05:28:15.103Z,2.15
2023-04-25T05:28:45.919Z,2.88
2023-04-25T05:29:16.886Z,1.07
2023-04-25T05:29:49.731Z,1.43
2023-04-25T05:30:22.217Z,1.80
2023-04-25T05:30:51.825Z,3.23
2023-04-25T05:31:21.829Z,3.60
2023-04-25T05:31:58.801Z,1.80
2023-04-25T05:32:23.414Z,2.15
2023-04-25T05:32:54.417Z,3.23
2023-04-25T05:33:25.566Z,3.60
2023-04-25T05:33:56.327Z,1.80
2023-04-25T05:34:27.816Z,5.76
2023-04-25T05:35:01.398Z,1.43
2023-04-25T05:35:32.422Z,1.43
2023-04-25T05:36:01.709Z,2.88
2023-04-25T05:36:32.127Z,2.88
2023-04-25T05:37:33.236Z,3.60
2023-04-25T05:38:04.282Z,2.52
2023-04-25T05:38:35.255Z,6.48
2023-04-25T05:39:06.129Z,6.11
2023-04-25T05:39:37.404Z,3.60
2023-04-25T05:40:11.318Z,3.60
2023-04-25T05:40:41.237Z,3.60
2023-04-25T05:41:11.702Z,1.07
2023-04-25T05:41:42.269Z,5.40
2023-04-25T05:42:12.552Z,3.60
2023-04-25T05:42:43.808Z,1.07
2023-04-25T05:43:14.161Z,5.03
2023-04-25T05:43:45.117Z,1.43
2023-04-25T05:44:16.233Z,6.48
2023-04-25T05:44:46.907Z,5.40
2023-04-25T05:45:21.760Z,6.48
2023-04-25T05:45:56.912Z,5.40
2023-04-25T05:53:35.938Z,1.43
2023-04-25T05:54:37.006Z,4.68
2023-04-25T05:56:08.909Z,1.43
2023-04-25T05:56:44.369Z,1.80
2023-04-25T05:57:13.673Z,3.23
2023-04-25T05:57:43.311Z,3.60
2023-04-25T05:58:14.020Z,2.88
2023-04-25T05:58:44.471Z,2.88
2023-04-25T05:59:15.902Z,4.68
2023-04-25T05:59:46.567Z,.72
2023-04-25T06:00:18.186Z,5.03
2023-04-25T06:01:33.012Z,4.68
2023-04-25T06:01:51.891Z,1.07
2023-04-25T06:02:21.381Z,5.76
2023-04-25T06:02:53.923Z,2.15
2023-04-25T06:03:24.792Z,4.68
2023-04-25T06:03:54.782Z,2.52
2023-04-25T06:04:26.246Z,1.43
2023-04-25T06:04:56.258Z,3.23
2023-04-25T06:05:27.630Z,2.88
2023-04-25T06:06:03.096Z,4.68
2023-04-25T06:06:30.524Z,3.23
2023-04-25T06:07:03.435Z,2.52
2023-04-25T06:07:33.681Z,3.95
2023-04-25T06:08:11.011Z,1.80
2023-04-25T06:08:33.726Z,2.15
2023-04-25T06:09:04.947Z,4.68
2023-04-25T06:09:35.604Z,3.60
2023-04-25T06:10:07.213Z,5.03
2023-04-25T06:10:37.436Z,1.80
2023-04-25T06:11:09.882Z,3.95
2023-04-25T06:11:56.670Z,2.15
2023-04-25T06:12:12.425Z,5.40
2023-04-25T06:12:43.682Z,2.52
2023-04-25T06:13:13.794Z,1.43
2023-04-25T06:13:43.903Z,2.52
2023-04-25T06:14:16.059Z,2.88
2023-04-25T06:14:45.502Z,4.31
2023-04-25T06:15:47.374Z,2.88
2023-04-25T06:16:19.100Z,1.43
2023-04-25T06:17:22.276Z,1.43
2023-04-25T06:17:53.506Z,3.95
2023-04-25T06:18:54.128Z,.72
2023-04-25T06:19:25.282Z,5.40
2023-04-25T06:19:55.430Z,4.68
2023-04-25T06:20:44.260Z,4.31
2023-04-25T06:20:57.452Z,3.60
2023-04-25T06:21:28.793Z,2.15
2023-04-25T06:21:59.488Z,4.68
2023-04-25T06:22:31.794Z,2.88
2023-04-25T06:23:03.663Z,2.15
2023-04-25T06:24:06.417Z,2.15
2023-04-25T06:24:34.555Z,1.07
2023-04-25T06:25:07.089Z,2.52
2023-04-25T06:25:36.324Z,.72
2023-04-25T06:26:08.068Z,3.60
2023-04-25T06:26:39.236Z,2.88
2023-04-25T06:27:10.227Z,2.88
2023-04-25T06:27:42.730Z,7.19
2023-04-25T06:28:13.746Z,3.60
2023-04-25T06:28:43.628Z,3.95
2023-04-25T06:29:15.007Z,6.48
2023-04-25T06:29:44.462Z,2.88
2023-04-25T06:30:16.892Z,1.07
2023-04-25T06:30:46.856Z,2.88
2023-04-25T06:31:18.644Z,1.43
2023-04-25T06:31:48.535Z,3.95
2023-04-25T06:32:19.904Z,2.88
2023-04-25T06:32:54.172Z,4.31
2023-04-25T06:33:26.086Z,3.60
2023-04-25T06:33:53.775Z,3.60
2023-04-25T06:34:25.124Z,1.43
2023-04-25T06:34:54.801Z,6.11
2023-04-25T06:35:26.491Z,2.15
2023-04-25T06:36:35.989Z,4.68
2023-04-25T06:36:58.476Z,2.15
2023-04-25T06:37:29.858Z,1.80
2023-04-25T06:38:01.576Z,.35
2023-04-25T06:38:33.805Z,1.80
2023-04-25T06:39:34.544Z,2.88
2023-04-25T06:40:06.107Z,2.88
2023-04-25T06:40:36.396Z,4.68
2023-04-25T06:41:06.848Z,3.95
2023-04-25T06:41:37.510Z,2.88
2023-04-25T06:42:09.161Z,2.88
2023-04-25T06:42:39.930Z,2.15
2023-04-25T06:43:44.098Z,3.95
2023-04-25T06:44:14.956Z,2.52
2023-04-25T06:45:02.398Z,4.31
2023-04-25T06:45:15.368Z,2.88
2023-04-25T06:45:48.699Z,2.15
2023-04-25T06:46:17.338Z,2.15
2023-04-25T06:46:47.395Z,3.95
2023-04-25T06:47:19.239Z,1.80
2023-04-25T06:47:49.950Z,1.07
2023-04-25T06:48:20.759Z,3.95
2023-04-25T06:48:53.769Z,2.88
2023-04-25T06:49:24.685Z,1.07
2023-04-25T06:49:54.913Z,3.95
2023-04-25T06:50:25.823Z,2.88
2023-04-25T06:50:55.844Z,2.15
2023-04-25T06:51:26.508Z,1.07
2023-04-25T06:51:57.456Z,2.52
2023-04-25T06:52:29.304Z,1.80
2023-04-25T06:53:00.252Z,2.15
2023-04-25T06:53:30.997Z,1.43
2023-04-25T06:54:03.737Z,6.48
2023-04-25T06:54:34.502Z,5.03
2023-04-25T06:55:06.202Z,6.11
2023-04-25T06:55:35.799Z,3.60
2023-04-25T06:56:06.207Z,1.80
2023-04-25T06:56:36.243Z,1.80
2023-04-25T06:57:08.586Z,5.40
2023-04-25T06:57:39.792Z,6.48
2023-04-25T06:58:09.874Z,2.52
2023-04-25T06:58:41.146Z,1.80
2023-04-25T06:59:14.015Z,1.43
2023-04-25T06:59:45.020Z,5.40
2023-04-25T07:00:16.739Z,4.68
2023-04-25T07:01:15.937Z,1.43
2023-04-25T07:01:46.928Z,2.15
2023-04-25T07:02:21.410Z,1.80
2023-04-25T07:02:48.500Z,2.88
2023-04-25T07:03:19.949Z,2.88
2023-04-25T07:03:51.282Z,2.88
2023-04-25T07:04:23.435Z,3.23
2023-04-25T07:04:55.095Z,4.68
2023-04-25T07:05:25.658Z,2.52
2023-04-25T07:05:56.301Z,2.52
2023-04-25T07:06:27.230Z,2.52
2023-04-25T07:06:56.732Z,1.80
2023-04-25T07:07:27.397Z,3.60
2023-04-25T07:07:58.749Z,2.15
2023-04-25T07:08:29.689Z,1.43
2023-04-25T07:09:00.992Z,1.43
2023-04-25T07:09:33.730Z,2.15
2023-04-25T07:10:04.485Z,2.15
2023-04-25T07:10:34.481Z,2.88
2023-04-25T07:11:05.140Z,2.15
2023-04-25T07:11:35.946Z,2.15
2023-04-25T07:12:07.154Z,2.15
2023-04-25T07:12:37.562Z,1.80
2023-04-25T07:13:08.567Z,2.15
2023-04-25T07:13:40.542Z,2.15
2023-04-25T07:14:10.793Z,2.15
2023-04-25T07:14:42.477Z,3.23
2023-04-25T07:15:15.566Z,6.11
2023-04-25T07:15:44.869Z,5.40
2023-04-25T07:16:15.505Z,2.52
2023-04-25T07:17:05.187Z,2.15
2023-04-25T07:17:17.132Z,1.07
2023-04-25T07:17:47.702Z,4.68
2023-04-25T07:18:19.266Z,2.88
2023-04-25T07:18:50.153Z,2.15
2023-04-25T07:19:20.832Z,2.15
2023-04-25T07:19:53.922Z,2.15
2023-04-25T07:20:25.064Z,1.80
2023-04-25T07:20:55.435Z,6.11
2023-04-25T07:21:25.820Z,3.60
2023-04-25T07:21:56.312Z,2.15
2023-04-25T07:22:27.133Z,3.95
2023-04-25T07:22:57.468Z,2.15
2023-04-25T07:23:28.495Z,2.88
2023-04-25T07:24:00.188Z,2.88
2023-04-25T07:24:31.068Z,5.03
2023-04-25T07:25:34.836Z,5.40
2023-04-25T07:26:05.208Z,2.15
2023-04-25T07:26:35.254Z,2.15
2023-04-25T07:27:06.074Z,3.95
2023-04-25T07:27:36.596Z,3.95
2023-04-25T07:28:08.235Z,4.68
2023-04-25T07:28:56.801Z,5.40
2023-04-25T07:29:10.162Z,9.36
2023-04-25T07:29:40.931Z,3.60
2023-04-25T07:30:14.049Z,3.95
2023-04-25T07:30:45.929Z,5.03
2023-04-25T07:31:15.102Z,4.31
2023-04-25T07:31:46.092Z,3.60
2023-04-25T07:32:16.567Z,1.80
2023-04-25T07:32:46.749Z,5.76
2023-04-25T07:33:17.425Z,2.88
2023-04-25T07:33:49.518Z,2.88
2023-04-25T07:34:20.188Z,2.52
2023-04-25T07:34:51.672Z,2.52
2023-04-25T07:35:23.858Z,3.23
2023-04-25T07:35:54.955Z,2.88
2023-04-25T07:36:26.119Z,4.68
2023-04-25T07:36:56.128Z,5.40
2023-04-25T07:37:26.473Z,5.40
2023-04-25T07:37:57.455Z,2.52
2023-04-25T07:38:27.961Z,2.15
2023-04-25T07:38:58.490Z,2.15
2023-04-25T07:39:30.415Z,.72
2023-04-25T07:40:01.154Z,1.43
2023-04-25T07:40:35.630Z,1.80
2023-04-25T07:41:05.101Z,.35
2023-04-25T07:41:35.385Z,.35
2023-04-25T07:42:05.766Z,2.52
2023-04-25T07:43:07.187Z,1.43
2023-04-25T07:43:37.861Z,2.15
2023-04-25T07:44:08.810Z,.35
2023-04-25T07:44:40.223Z,1.07
2023-04-25T07:45:11.903Z,1.07
2023-04-25T07:45:41.936Z,1.43
2023-04-25T07:46:14.550Z,1.80
2023-04-25T07:46:45.231Z,1.43
2023-04-25T07:47:15.803Z,2.15
2023-04-25T07:47:45.973Z,2.15
2023-04-25T07:48:17.391Z,2.15
2023-04-25T07:48:49.110Z,.35
2023-04-25T07:49:19.025Z,1.43
2023-04-25T07:49:51.904Z,2.52
2023-04-25T07:50:21.919Z,2.52
2023-04-25T07:50:51.927Z,2.88
2023-04-25T07:51:23.440Z,3.95
2023-04-25T07:51:56.057Z,1.07
2023-04-25T07:52:26.273Z,1.80
2023-04-25T07:53:14.553Z,.72
2023-04-25T07:53:27.569Z,2.88
2023-04-25T07:53:57.814Z,3.60
2023-04-25T07:54:28.650Z,1.07
2023-04-25T07:54:59.881Z,.72
2023-04-25T07:55:31.217Z,2.15
2023-04-25T07:56:01.878Z,3.95
2023-04-25T07:56:49.247Z,1.43
2023-04-25T07:57:36.056Z,.35
2023-04-25T07:58:07.178Z,1.07
2023-04-25T07:58:37.002Z,4.68